createdAt,value
2018-12-18T00:02:01.518Z,5.12
2018-12-18T00:04:31.919Z,4.63
2018-12-18T00:07:06.456Z,4.79
2018-12-18T00:09:37.661Z,4.87
2018-12-18T00:12:11.124Z,4.91
2018-12-18T00:14:44.861Z,4.98
2018-12-18T00:17:15.779Z,4.87
2018-12-18T00:19:49.492Z,4.94
2018-12-18T00:22:23.100Z,4.67
2018-12-18T00:24:54.917Z,4.62
2018-12-18T00:27:25.633Z,4.65
2018-12-18T00:29:59.460Z,4.65
2018-12-18T00:32:33.034Z,4.76
2018-12-18T00:35:04.173Z,4.86
2018-12-18T00:37:34.495Z,4.72
2018-12-18T00:40:14.823Z,4.68
2018-12-18T00:42:48.245Z,4.68
2018-12-18T00:45:19.157Z,4.46
2018-12-18T00:47:50.056Z,4.62
2018-12-18T00:50:23.701Z,4.55
2018-12-18T00:52:54.558Z,4.48
2018-12-18T00:55:25.386Z,4.67
2018-12-18T00:57:56.372Z,4.44
2018-12-18T01:00:29.880Z,4.68
2018-12-18T01:03:00.962Z,4.54
2018-12-18T01:05:31.914Z,4.58
2018-12-18T01:08:06.085Z,4.52
2018-12-18T01:10:39.391Z,4.65
2018-12-18T01:13:10.485Z,4.46
2018-12-18T01:15:41.334Z,4.32
2018-12-18T01:18:15.030Z,4.37
2018-12-18T01:20:46.053Z,4.41
2018-12-18T01:23:15.060Z,4.26
2018-12-18T01:25:46.190Z,4.29
2018-12-18T01:28:17.013Z,4.22
2018-12-18T01:33:43.233Z,4.24
2018-12-18T01:36:13.852Z,4.30
2018-12-18T01:38:44.864Z,4.30
2018-12-18T01:41:18.465Z,4.27
2018-12-18T01:43:49.380Z,4.26
2018-12-18T01:46:18.508Z,4.38
2018-12-18T01:48:52.228Z,4.41
2018-12-18T01:51:23.447Z,4.30
2018-12-18T01:53:54.472Z,4.37
2018-12-18T01:56:28.524Z,4.33
2018-12-18T01:59:02.482Z,4.44
2018-12-18T02:01:33.199Z,4.30
2018-12-18T02:04:06.034Z,4.46
2018-12-18T02:06:39.681Z,4.33
2018-12-18T02:09:10.742Z,4.49
2018-12-18T02:11:44.029Z,4.62
2018-12-18T02:17:06.763Z,4.52
2018-12-18T02:19:34.150Z,4.38
2018-12-18T02:24:57.626Z,4.32
2018-12-18T02:27:33.803Z,4.32
2018-12-18T02:30:01.257Z,4.41
2018-12-18T02:32:43.532Z,4.28
2018-12-18T02:35:14.298Z,4.19
2018-12-18T02:37:45.122Z,4.17
2018-12-18T02:40:13.828Z,4.25
2018-12-18T02:42:47.776Z,4.10
2018-12-18T02:45:18.975Z,4.15
2018-12-18T02:50:42.530Z,4.14
2018-12-18T02:53:32.940Z,4.13
2018-12-18T02:56:14.064Z,4.21
2018-12-18T02:58:44.562Z,4.22
2018-12-18T03:01:18.036Z,4.21
2018-12-18T03:03:48.750Z,4.32
2018-12-18T03:06:22.218Z,4.31
2018-12-18T03:08:56.054Z,4.24
2018-12-18T03:11:29.910Z,4.14
2018-12-18T03:14:04.504Z,4.18
2018-12-18T03:16:34.804Z,4.16
2018-12-18T03:19:05.749Z,4.08
2018-12-18T03:21:39.907Z,4.16
2018-12-18T03:24:13.009Z,3.99
2018-12-18T03:26:42.150Z,3.98
2018-12-18T03:29:15.677Z,4.00
2018-12-18T03:31:50.714Z,3.96
2018-12-18T03:34:20.745Z,4.02
2018-12-18T03:36:49.478Z,3.98
2018-12-18T03:39:24.056Z,3.92
2018-12-18T03:41:57.964Z,4.08
2018-12-18T03:44:29.019Z,4.04
2018-12-18T03:47:02.604Z,3.99
2018-12-18T03:49:33.823Z,4.09
2018-12-18T03:52:04.738Z,4.04
2018-12-18T03:54:38.041Z,4.03
2018-12-18T03:57:08.986Z,3.98
2018-12-18T03:59:39.915Z,4.08
2018-12-18T04:02:15.468Z,4.18
2018-12-18T04:04:48.564Z,4.12
2018-12-18T04:07:26.075Z,4.07
2018-12-18T04:09:57.296Z,4.09
2018-12-18T04:12:31.095Z,4.24
2018-12-18T04:15:04.553Z,4.22
2018-12-18T04:17:33.360Z,4.13
2018-12-18T04:20:06.906Z,3.92
2018-12-18T04:22:40.684Z,4.01
2018-12-18T04:25:11.609Z,4.12
2018-12-18T04:30:48.288Z,4.21
2018-12-18T04:33:18.784Z,4.13
2018-12-18T04:35:49.542Z,4.03
2018-12-18T04:38:23.326Z,4.12
2018-12-18T04:40:54.161Z,4.08
2018-12-18T04:43:27.667Z,4.08
2018-12-18T04:45:56.489Z,4.14
2018-12-18T04:48:27.394Z,4.19
2018-12-18T04:51:01.069Z,4.21
2018-12-18T04:53:32.051Z,4.38
2018-12-18T04:59:00.964Z,4.41
2018-12-18T05:01:31.879Z,4.40
2018-12-18T05:04:03.918Z,4.52
2018-12-18T05:06:34.621Z,4.40
2018-12-18T05:09:06.956Z,4.37
2018-12-18T05:11:40.461Z,4.48
2018-12-18T05:14:10.867Z,4.56
2018-12-18T05:16:44.768Z,4.63
2018-12-18T05:19:16.062Z,4.69
2018-12-18T05:21:49.872Z,4.68
2018-12-18T05:24:23.914Z,4.72
2018-12-18T05:26:57.939Z,4.71
2018-12-18T05:29:29.158Z,4.76
2018-12-18T05:32:03.300Z,4.62
2018-12-18T05:34:36.404Z,4.56
2018-12-18T05:37:10.420Z,4.61
2018-12-18T05:39:41.555Z,4.49
2018-12-18T05:42:15.496Z,4.55
2018-12-18T05:44:46.499Z,4.62
2018-12-18T05:47:20.307Z,4.50
2018-12-18T05:49:50.641Z,4.34
2018-12-18T05:52:24.245Z,4.40
2018-12-18T05:54:57.544Z,4.36
2018-12-18T05:57:31.575Z,4.47
2018-12-18T06:00:00.807Z,4.56
2018-12-18T06:02:29.812Z,4.56
2018-12-18T06:05:03.775Z,4.61
2018-12-18T06:07:32.877Z,4.76
2018-12-18T06:10:04.526Z,4.74
2018-12-18T06:12:39.641Z,4.81
2018-12-18T06:15:13.801Z,4.72
2018-12-18T06:17:47.765Z,4.77
2018-12-18T06:20:21.672Z,4.80
2018-12-18T06:22:56.368Z,4.76
2018-12-18T06:25:27.514Z,4.88
2018-12-18T06:28:05.010Z,4.85
2018-12-18T06:30:36.152Z,4.87
2018-12-18T06:33:09.854Z,4.92
2018-12-18T06:35:43.753Z,4.94
2018-12-18T06:38:14.960Z,5.11
2018-12-18T06:40:43.964Z,4.98
2018-12-18T06:43:17.796Z,5.14
2018-12-18T06:45:49.045Z,5.20
2018-12-18T06:48:20.067Z,5.23
2018-12-18T06:50:58.040Z,5.10
2018-12-18T06:53:31.973Z,5.05
2018-12-18T06:56:05.928Z,5.05
2018-12-18T06:58:36.054Z,5.05
2018-12-18T07:01:04.773Z,5.20
2018-12-18T07:03:38.784Z,5.14
2018-12-18T07:06:15.395Z,5.14
2018-12-18T07:08:46.190Z,5.26
2018-12-18T07:11:15.267Z,5.38
2018-12-18T07:13:49.264Z,5.35
2018-12-18T07:16:23.173Z,5.41
2018-12-18T07:18:53.481Z,5.35
2018-12-18T07:21:22.598Z,5.30
2018-12-18T07:26:27.579Z,5.23
2018-12-18T07:29:01.476Z,5.19
2018-12-18T07:31:30.404Z,5.02
2018-12-18T07:34:04.309Z,5.08
2018-12-18T07:36:38.484Z,5.00
2018-12-18T07:39:09.575Z,4.90
2018-12-18T07:41:38.423Z,5.00
2018-12-18T07:44:12.166Z,4.93
2018-12-18T07:46:41.393Z,4.94
2018-12-18T07:49:12.528Z,4.90
2018-12-18T07:51:43.467Z,4.92
2018-12-18T07:54:17.165Z,4.83
2018-12-18T07:56:50.304Z,4.77
2018-12-18T07:59:24.283Z,4.85
2018-12-18T08:01:58.127Z,4.90
2018-12-18T08:04:29.356Z,4.90
2018-12-18T08:06:56.749Z,5.09
2018-12-18T08:09:30.045Z,5.18
2018-12-18T08:11:59.084Z,5.39
2018-12-18T08:14:30.020Z,5.41
2018-12-18T08:17:01.041Z,5.49
2018-12-18T08:19:29.952Z,5.55
2018-12-18T08:22:00.896Z,5.52
2018-12-18T08:24:34.763Z,5.70
2018-12-18T08:27:07.896Z,5.74
2018-12-18T08:29:39.032Z,5.67
2018-12-18T08:32:12.828Z,5.81
2018-12-18T08:34:46.981Z,5.96
2018-12-18T08:37:18.131Z,6.04
2018-12-18T08:39:50.900Z,5.94
2018-12-18T08:42:22.064Z,5.90
2018-12-18T08:44:52.898Z,6.04
2018-12-18T08:47:27.088Z,6.04
2018-12-18T08:49:58.203Z,6.02
2018-12-18T08:52:29.164Z,6.12
2018-12-18T08:55:03.064Z,6.19
2018-12-18T08:57:40.763Z,6.30
2018-12-18T09:00:14.620Z,6.22
2018-12-18T09:02:48.684Z,6.27
2018-12-18T09:05:19.924Z,6.11
2018-12-18T09:07:50.941Z,6.16
2018-12-18T09:10:24.806Z,6.18
2018-12-18T09:12:56.039Z,6.21
2018-12-18T09:15:32.781Z,6.26
2018-12-18T09:18:03.461Z,6.45
2018-12-18T09:20:37.947Z,6.46
2018-12-18T09:23:11.018Z,6.52
2018-12-18T09:25:44.900Z,6.50
2018-12-18T09:28:16.128Z,6.73
2018-12-18T09:30:45.127Z,6.76
2018-12-18T09:33:18.204Z,6.91
2018-12-18T09:35:49.862Z,6.97
2018-12-18T09:41:39.952Z,6.89
2018-12-18T09:44:17.163Z,7.00
2018-12-18T09:46:50.941Z,7.12
2018-12-18T09:49:21.756Z,7.13
2018-12-18T09:51:55.492Z,7.20
2018-12-18T09:57:28.456Z,7.31
2018-12-18T09:59:55.847Z,7.34
2018-12-18T10:02:23.242Z,7.53
2018-12-18T10:04:50.628Z,7.56
2018-12-18T10:07:18.016Z,7.54
2018-12-18T10:09:45.408Z,7.65
2018-12-18T10:12:12.832Z,7.65
2018-12-18T10:14:40.220Z,7.78
2018-12-18T10:17:07.599Z,7.76
2018-12-18T10:19:34.986Z,7.66
2018-12-18T10:22:02.457Z,7.65
2018-12-18T10:24:29.849Z,7.61
2018-12-18T10:26:57.232Z,7.74
2018-12-18T10:29:24.629Z,7.65
2018-12-18T10:31:58.528Z,7.79
2018-12-18T10:34:32.429Z,7.83
2018-12-18T10:37:06.103Z,7.79
2018-12-18T10:39:35.211Z,7.81
2018-12-18T10:42:04.159Z,7.82
2018-12-18T10:44:38.028Z,7.80
2018-12-18T10:47:15.795Z,7.80
2018-12-18T10:49:46.517Z,7.87
2018-12-18T10:52:20.432Z,7.72
2018-12-18T10:54:53.576Z,7.78
2018-12-18T10:57:27.260Z,7.78
2018-12-18T10:59:58.604Z,7.79
2018-12-18T11:02:32.368Z,7.78
2018-12-18T11:05:06.369Z,7.81
2018-12-18T11:07:40.255Z,7.77
2018-12-18T11:18:59.200Z,7.48
2018-12-18T11:21:34.496Z,7.51
2018-12-18T11:26:58.037Z,7.50
2018-12-18T11:35:27.674Z,7.25
2018-12-18T11:38:05.424Z,7.29
2018-12-18T11:46:41.141Z,6.79
2018-12-18T11:49:21.674Z,6.86
2018-12-18T11:52:05.971Z,6.88
2018-12-18T12:03:23.748Z,6.79
2018-12-18T12:05:57.031Z,6.76
2018-12-18T12:08:24.429Z,6.85
2018-12-18T12:11:08.980Z,6.86
2018-12-18T12:16:48.804Z,6.90
2018-12-18T12:19:22.898Z,6.95
2018-12-18T12:24:59.256Z,6.85
2018-12-18T12:30:39.192Z,6.81
2018-12-18T12:33:12.261Z,6.87
2018-12-18T12:35:45.664Z,7.00
2018-12-18T12:41:14.703Z,6.99
2018-12-18T12:46:37.645Z,6.98
2018-12-18T12:49:21.564Z,6.99
2018-12-18T12:52:04.519Z,6.90
2018-12-18T12:57:34.855Z,6.96
2018-12-18T13:00:17.032Z,6.91
2018-12-18T13:05:53.136Z,7.10
2018-12-18T13:08:33.603Z,7.28
2018-12-18T13:14:00.164Z,7.26
2018-12-18T13:16:28.759Z,7.27
2018-12-18T13:25:05.787Z,7.28
2018-12-18T13:30:42.055Z,7.14
2018-12-18T13:33:13.192Z,7.24
2018-12-18T13:38:43.033Z,7.38
2018-12-18T13:47:08.645Z,7.23
2018-12-18T14:01:35.053Z,7.27
2018-12-18T14:04:08.967Z,7.29
2018-12-18T14:12:27.606Z,7.24
2018-12-18T14:15:18.378Z,7.19
2018-12-18T14:18:04.933Z,7.20
2018-12-18T14:20:40.500Z,7.26
2018-12-18T14:26:27.664Z,7.23
2018-12-18T14:29:01.421Z,7.23
2018-12-18T14:34:27.536Z,7.08
2018-12-18T14:39:50.561Z,7.14
2018-12-18T14:42:17.952Z,7.18
2018-12-18T14:45:04.252Z,7.19
2018-12-18T14:47:35.184Z,7.10
2018-12-18T14:50:02.636Z,7.14
2018-12-18T14:52:46.603Z,7.03
2018-12-18T14:55:14.023Z,7.13
2018-12-18T15:03:33.068Z,7.04
2018-12-18T15:06:10.432Z,7.00
2018-12-18T15:08:39.556Z,7.04
2018-12-18T15:14:02.643Z,6.97
2018-12-18T15:16:30.030Z,6.95
2018-12-18T15:18:57.440Z,6.94
2018-12-18T15:21:28.127Z,6.95
2018-12-18T15:23:55.539Z,6.78
2018-12-18T15:26:22.933Z,6.80
2018-12-18T15:28:50.325Z,6.85
2018-12-18T15:31:17.708Z,6.81
2018-12-18T15:34:04.488Z,6.75
2018-12-18T15:36:31.864Z,6.86
2018-12-18T15:38:59.319Z,6.76
2018-12-18T15:41:26.705Z,6.83
2018-12-18T15:43:54.085Z,6.80
2018-12-18T15:46:23.400Z,6.76
2018-12-18T15:48:50.800Z,6.86
2018-12-18T15:51:18.188Z,6.90
2018-12-18T15:53:48.566Z,6.78
2018-12-18T15:59:34.281Z,6.74
2018-12-18T16:02:24.254Z,6.63
2018-12-18T16:07:45.863Z,6.61
2018-12-18T16:10:23.314Z,6.70
2018-12-18T16:12:50.709Z,6.67
2018-12-18T16:15:18.156Z,6.67
2018-12-18T16:17:45.553Z,6.75
2018-12-18T16:20:12.945Z,6.46
2018-12-18T16:22:40.351Z,6.57
2018-12-18T16:25:07.747Z,6.47
2018-12-18T16:27:35.126Z,6.55
2018-12-18T16:30:02.573Z,6.52
2018-12-18T16:32:31.023Z,6.58
2018-12-18T16:34:58.413Z,6.55
2018-12-18T16:37:25.804Z,6.45
2018-12-18T16:39:53.259Z,6.41
2018-12-18T16:42:20.672Z,6.51
2018-12-18T16:44:48.080Z,6.54
2018-12-18T16:47:15.555Z,6.53
2018-12-18T16:49:42.946Z,6.50
2018-12-18T16:52:11.072Z,6.46
2018-12-18T16:54:38.536Z,6.53
2018-12-18T16:57:05.932Z,6.46
2018-12-18T16:59:33.320Z,6.41
2018-12-18T17:02:00.718Z,6.32
2018-12-18T17:04:28.104Z,6.33
2018-12-18T17:06:55.514Z,6.33
2018-12-18T17:09:29.409Z,6.34
2018-12-18T17:11:56.783Z,6.31
2018-12-18T17:14:24.177Z,6.22
2018-12-18T17:16:51.577Z,6.30
2018-12-18T17:19:18.968Z,6.22
2018-12-18T17:21:46.362Z,6.26
2018-12-18T17:24:13.769Z,6.28
2018-12-18T17:26:41.158Z,6.27
2018-12-18T17:29:08.540Z,6.18
2018-12-18T17:31:35.924Z,6.25
2018-12-18T17:34:03.316Z,6.16
2018-12-18T17:36:30.707Z,6.20
2018-12-18T17:38:58.097Z,6.17
2018-12-18T17:41:25.494Z,6.20
2018-12-18T17:43:53.055Z,6.16
2018-12-18T17:46:20.431Z,6.06
2018-12-18T17:48:47.896Z,6.03
2018-12-18T17:51:15.280Z,5.96
2018-12-18T17:53:42.671Z,6.03
2018-12-18T17:56:10.067Z,6.01
2018-12-18T17:58:37.461Z,5.99
2018-12-18T18:01:04.897Z,5.95
2018-12-18T18:03:32.291Z,5.92
2018-12-18T18:05:59.687Z,5.99
2018-12-18T18:08:27.082Z,6.01
2018-12-18T18:10:54.484Z,5.96
2018-12-18T18:13:22.025Z,5.89
2018-12-18T18:15:49.412Z,5.91
2018-12-18T18:18:16.893Z,5.82
2018-12-18T18:20:44.279Z,5.85
2018-12-18T18:23:11.684Z,5.92
2018-12-18T18:25:39.146Z,6.03
2018-12-18T18:28:06.539Z,5.87
2018-12-18T18:30:33.976Z,5.93
2018-12-18T18:33:01.397Z,5.99
2018-12-18T18:35:28.779Z,5.91
2018-12-18T18:37:56.182Z,5.92
2018-12-18T18:40:23.572Z,5.97
2018-12-18T18:42:50.978Z,5.92
2018-12-18T18:45:18.433Z,5.92
2018-12-18T18:47:45.820Z,5.99
2018-12-18T18:50:13.319Z,5.94
2018-12-18T18:52:40.803Z,5.88
2018-12-18T18:55:08.218Z,5.90
2018-12-18T18:57:35.665Z,5.89
2018-12-18T19:00:03.806Z,5.88
2018-12-18T19:02:31.179Z,5.89
2018-12-18T19:04:58.564Z,5.89
2018-12-18T19:07:25.954Z,5.81
2018-12-18T19:09:53.361Z,5.81
2018-12-18T19:12:20.757Z,5.77
2018-12-18T19:14:48.187Z,5.78
2018-12-18T19:17:15.572Z,5.71
2018-12-18T19:19:42.979Z,5.66
2018-12-18T19:22:10.357Z,5.74
2018-12-18T19:24:37.763Z,5.73
2018-12-18T19:27:05.225Z,5.57
2018-12-18T19:29:32.624Z,5.58
2018-12-18T19:32:00.005Z,5.61
2018-12-18T19:34:27.422Z,5.64
2018-12-18T19:36:54.997Z,5.63
2018-12-18T19:39:22.835Z,5.66
2018-12-18T19:41:53.698Z,5.73
2018-12-18T19:44:21.228Z,5.70
2018-12-18T19:46:48.619Z,5.60
2018-12-18T19:49:17.207Z,5.49
2018-12-18T19:51:44.829Z,5.58
2018-12-18T19:54:12.202Z,5.67
2018-12-18T19:56:39.657Z,5.65
2018-12-18T19:59:10.782Z,5.75
2018-12-18T20:01:36.471Z,5.71
2018-12-18T20:04:03.956Z,5.71
2018-12-18T20:06:31.605Z,5.79
2018-12-18T20:08:58.985Z,5.63
2018-12-18T20:11:26.373Z,5.77
2018-12-18T20:13:53.755Z,5.69
2018-12-18T20:16:21.192Z,5.71
2018-12-18T20:18:48.625Z,5.74
2018-12-18T20:21:16.098Z,5.74
2018-12-18T20:23:43.616Z,5.74
2018-12-18T20:26:11.380Z,5.69
2018-12-18T20:28:38.759Z,5.74
2018-12-18T20:31:06.180Z,5.68
2018-12-18T20:33:33.558Z,5.69
2018-12-18T20:36:00.953Z,5.60
2018-12-18T20:38:28.347Z,5.61
2018-12-18T20:40:55.728Z,5.62
2018-12-18T20:43:23.159Z,5.57
2018-12-18T20:45:50.556Z,5.53
2018-12-18T20:48:17.959Z,5.50
2018-12-18T20:50:45.362Z,5.51
2018-12-18T20:53:12.773Z,5.60
2018-12-18T20:55:40.258Z,5.51
2018-12-18T20:58:07.660Z,5.52
2018-12-18T21:00:35.054Z,5.53
2018-12-18T21:03:02.535Z,5.54
2018-12-18T21:05:29.919Z,5.62
2018-12-18T21:07:59.855Z,5.60
2018-12-18T21:10:27.266Z,5.74
2018-12-18T21:12:57.990Z,5.71
2018-12-18T21:15:25.404Z,5.79
2018-12-18T21:17:52.813Z,5.78
2018-12-18T21:20:20.212Z,5.84
2018-12-18T21:22:47.620Z,5.90
2018-12-18T21:25:18.863Z,5.85
2018-12-18T21:27:44.429Z,5.74
2018-12-18T21:30:11.964Z,5.79
2018-12-18T21:32:39.374Z,5.78
2018-12-18T21:35:06.834Z,5.81
2018-12-18T21:37:34.217Z,5.81
2018-12-18T21:40:01.624Z,5.81
2018-12-18T21:42:29.018Z,5.83
2018-12-18T21:44:56.620Z,5.84
2018-12-18T21:47:24.013Z,5.86
2018-12-18T21:49:51.495Z,5.91
2018-12-18T21:52:19.039Z,5.97
2018-12-18T21:54:46.429Z,5.90
2018-12-18T21:57:13.818Z,6.04
2018-12-18T21:59:41.314Z,5.88
2018-12-18T22:02:08.684Z,5.87
2018-12-18T22:04:36.221Z,5.89
2018-12-18T22:07:03.611Z,5.91
2018-12-18T22:09:31.032Z,5.86
2018-12-18T22:11:58.422Z,5.81
2018-12-18T22:14:25.816Z,5.89
2018-12-18T22:16:53.199Z,5.84
2018-12-18T22:19:20.705Z,5.91
2018-12-18T22:21:48.083Z,5.97
2018-12-18T22:24:15.475Z,6.00
2018-12-18T22:26:42.867Z,5.89
2018-12-18T22:29:16.075Z,5.92
2018-12-18T22:31:46.353Z,5.81
2018-12-18T22:34:19.901Z,5.84
2018-12-18T22:36:53.832Z,5.88
2018-12-18T22:39:21.267Z,5.95
2018-12-18T22:41:51.896Z,5.83
2018-12-18T22:44:25.878Z,5.82
2018-12-18T22:46:54.668Z,5.85
2018-12-18T22:49:25.483Z,5.83
2018-12-18T22:51:56.104Z,5.93
2018-12-18T22:54:29.604Z,5.93
2018-12-18T22:57:03.239Z,5.77
2018-12-18T22:59:38.326Z,5.80
2018-12-18T23:02:15.940Z,5.73
2018-12-18T23:04:47.196Z,5.82
2018-12-18T23:07:20.892Z,5.94
2018-12-18T23:12:47.003Z,5.78
2018-12-18T23:15:14.391Z,5.89
2018-12-18T23:17:41.796Z,5.92
2018-12-18T23:20:09.300Z,5.88
2018-12-18T23:22:36.708Z,5.87
2018-12-18T23:25:04.399Z,5.80
2018-12-18T23:27:31.852Z,5.82
2018-12-18T23:29:59.232Z,5.83
2018-12-18T23:32:26.637Z,5.82
2018-12-18T23:34:54.023Z,5.80
2018-12-18T23:37:21.429Z,5.78
2018-12-18T23:39:48.797Z,5.75
2018-12-18T23:42:16.205Z,5.77
2018-12-18T23:44:43.589Z,5.75
2018-12-18T23:47:10.996Z,5.75
2018-12-18T23:49:38.390Z,5.75
2018-12-18T23:52:05.780Z,5.74
2018-12-18T23:54:33.172Z,5.78
2018-12-18T23:57:00.607Z,5.75
2018-12-18T23:59:28.075Z,5.81
